Time,TemperatureF,DewpointF,PressureIn,WindDirection,WindDirectionDegrees,WindSpeedMPH,WindSpeedGustMPH,Humidity,HourlyPrecipIn,Conditions,Clouds,dailyrainin,SoftwareType,DateUTC
2013-03-10 00:00:00,60.2,59.3,29.72,SW,235,2.3,2.3,97,0.07,RA,,0.00,WeatherDisplay:10.37,2013-03-10 06:00:00,
2013-03-10 00:05:00,60.2,59.3,29.72,WSW,256,3.5,3.5,97,0.07,RA,,0.00,WeatherDisplay:10.37,2013-03-10 06:05:00,
2013-03-10 00:10:00,60.2,59.3,29.72,West,278,2.3,2.3,97,0.06,,,0.00,WeatherDisplay:10.37,2013-03-10 06:10:00,
2013-03-10 00:15:00,60.1,59.2,29.72,West,262,0.0,0.0,97,0.07,RA,,0.01,WeatherDisplay:10.37,2013-03-10 06:15:00,
2013-03-10 00:20:00,60.1,59.2,29.73,West,280,1.2,1.2,97,0.06,RA,,0.01,WeatherDisplay:10.37,2013-03-10 06:20:00,
2013-03-10 00:25:00,60.0,59.1,29.71,NNE,12,2.3,2.3,97,0.06,,,0.01,WeatherDisplay:10.37,2013-03-10 06:25:00,
2013-03-10 00:30:00,60.0,59.1,29.70,SW,233,2.3,2.3,97,0.05,,,0.01,WeatherDisplay:10.37,2013-03-10 06:30:00,
2013-03-10 00:35:00,59.9,59.0,29.70,WSW,246,1.2,0.0,97,0.04,,,0.01,WeatherDisplay:10.37,2013-03-10 06:35:00,
2013-03-10 00:40:00,59.6,58.7,29.70,WSW,250,1.2,0.0,97,0.03,,,0.01,WeatherDisplay:10.37,2013-03-10 06:40:00,
2013-03-10 00:45:00,59.6,58.7,29.71,WSW,250,0.0,0.0,97,0.02,,,0.01,WeatherDisplay:10.37,2013-03-10 06:45:00,
2013-03-10 00:50:00,59.5,58.6,29.70,WSW,250,0.0,0.0,97,0.01,,,0.01,WeatherDisplay:10.37,2013-03-10 06:50:00,
2013-03-10 00:55:00,59.3,58.4,29.71,WSW,250,0.0,0.0,97,0.01,,,0.01,WeatherDisplay:10.37,2013-03-10 06:55:00,
2013-03-10 01:00:00,59.2,58.3,29.71,SW,229,1.0,1.0,97,0.01,,,0.01,WeatherDisplay:10.37,2013-03-10 07:00:00,
2013-03-10 01:05:00,59.3,58.4,29.73,SW,217,3.0,3.0,97,0.01,,,0.01,WeatherDisplay:10.37,2013-03-10 07:05:00,
2013-03-10 01:10:00,59.4,58.5,29.73,West,271,1.2,1.2,97,0.01,,,0.01,WeatherDisplay:10.37,2013-03-10 07:10:00,
2013-03-10 01:15:00,59.4,58.5,29.72,SW,228,1.0,1.0,97,0.00,,,0.01,WeatherDisplay:10.37,2013-03-10 07:15:00,
2013-03-10 01:20:00,59.4,58.5,29.72,WNW,299,1.2,1.2,97,0.00,,,0.01,WeatherDisplay:10.37,2013-03-10 07:20:00,
2013-03-10 01:25:00,59.3,58.4,29.70,North,358,1.2,1.2,97,0.00,,,0.01,WeatherDisplay:10.37,2013-03-10 07:25:00,
2013-03-10 01:30:00,59.2,58.3,29.70,NE,39,1.2,1.2,97,0.00,,,0.01,WeatherDisplay:10.37,2013-03-10 07:30:00,
2013-03-10 01:36:00,59.1,58.2,29.72,NE,39,0.0,0.0,97,0.00,,,0.01,WeatherDisplay:10.37,2013-03-10 07:36:00,
2013-03-10 01:41:00,59.1,58.2,29.73,SW,225,3.5,3.5,97,0.00,,,0.01,WeatherDisplay:10.37,2013-03-10 07:41:00,
2013-03-10 01:46:00,59.1,58.2,29.73,WNW,291,1.2,1.2,97,0.00,,,0.01,WeatherDisplay:10.37,2013-03-10 07:46:00,
2013-03-10 01:51:00,59.1,58.2,29.72,NW,309,3.5,3.5,97,0.00,,,0.01,WeatherDisplay:10.37,2013-03-10 07:51:00,
2013-03-10 01:56:00,59.0,58.2,29.71,NW,320,3.5,3.5,97,0.00,,,0.01,WeatherDisplay:10.37,2013-03-10 07:56:00,
2013-03-10 03:01:00,58.8,58.0,29.73,WNW,290,2.3,2.3,97,0.00,,,0.01,WeatherDisplay:10.37,2013-03-10 08:01:00,
2013-03-10 03:06:00,58.7,57.9,29.74,West,267,4.0,4.0,97,0.00,,,0.01,WeatherDisplay:10.37,2013-03-10 08:06:00,
2013-03-10 03:11:00,58.6,57.5,29.74,WNW,297,2.3,2.3,96,0.00,,,0.01,WeatherDisplay:10.37,2013-03-10 08:11:00,
2013-03-10 03:16:00,58.4,57.0,29.75,WSW,253,3.5,3.5,95,0.00,,,0.01,WeatherDisplay:10.37,2013-03-10 08:16:00,
2013-03-10 03:21:00,58.4,56.7,29.75,WNW,298,2.3,2.3,94,0.00,,,0.01,WeatherDisplay:10.37,2013-03-10 08:21:00,
2013-03-10 03:26:00,58.4,56.4,29.74,NW,316,1.2,1.2,93,0.00,,,0.01,WeatherDisplay:10.37,2013-03-10 08:26:00,
2013-03-10 03:31:00,58.3,56.0,29.74,West,278,3.5,3.5,92,0.00,,,0.01,WeatherDisplay:10.37,2013-03-10 08:31:00,
2013-03-10 03:36:00,58.2,55.9,29.74,WNW,290,2.3,2.3,92,0.00,,,0.01,WeatherDisplay:10.37,2013-03-10 08:36:00,
2013-03-10 03:41:00,58.2,55.3,29.75,West,269,2.3,2.3,90,0.00,,,0.01,WeatherDisplay:10.37,2013-03-10 08:41:00,
2013-03-10 03:46:00,58.2,54.7,29.73,NNE,30,4.0,4.0,88,0.00,,,0.01,WeatherDisplay:10.37,2013-03-10 08:46:00,
2013-03-10 03:51:00,58.4,53.9,29.74,NW,305,5.8,5.8,85,0.00,,,0.01,WeatherDisplay:10.37,2013-03-10 08:51:00,
2013-03-10 03:56:00,58.5,53.4,29.73,NW,314,3.5,3.5,83,0.00,,,0.01,WeatherDisplay:10.37,2013-03-10 08:56:00,
2013-03-10 04:01:00,58.6,51.4,29.76,SW,224,8.1,8.1,77,0.00,,,0.01,WeatherDisplay:10.37,2013-03-10 09:01:00,
2013-03-10 04:06:00,58.7,50.4,29.76,WNW,295,11.5,11.5,74,0.00,,,0.01,WeatherDisplay:10.37,2013-03-10 09:06:00,
2013-03-10 04:11:00,58.5,49.5,29.76,NW,319,5.8,5.8,72,0.00,,,0.01,WeatherDisplay:10.37,2013-03-10 09:11:00,
2013-03-10 04:16:00,58.4,48.3,29.75,WNW,294,5.8,5.8,69,0.00,,,0.01,WeatherDisplay:10.37,2013-03-10 09:16:00,
2013-03-10 04:21:00,58.2,47.7,29.75,WNW,286,8.1,8.1,68,0.00,,,0.01,WeatherDisplay:10.37,2013-03-10 09:21:00,
2013-03-10 04:26:00,58.1,46.8,29.74,NW,322,9.2,9.2,66,0.00,,,0.01,WeatherDisplay:10.37,2013-03-10 09:26:00,
2013-03-10 04:31:00,58.0,46.3,29.75,WNW,282,8.1,8.1,65,0.00,,,0.01,WeatherDisplay:10.37,2013-03-10 09:31:00,
2013-03-10 04:36:00,57.8,46.1,29.75,WNW,301,10.0,10.0,65,0.00,,,0.01,WeatherDisplay:10.37,2013-03-10 09:36:00,
2013-03-10 04:41:00,57.8,45.3,29.75,NW,310,10.4,10.4,63,0.00,,,0.01,WeatherDisplay:10.37,2013-03-10 09:41:00,
2013-03-10 04:46:00,57.8,44.9,29.76,WNW,293,11.5,11.5,62,0.00,,,0.01,WeatherDisplay:10.37,2013-03-10 09:46:00,
2013-03-10 04:51:00,57.7,45.2,29.74,WNW,292,6.9,6.9,63,0.00,,,0.01,WeatherDisplay:10.37,2013-03-10 09:51:00,
2013-03-10 04:56:00,57.4,44.9,29.74,West,281,8.0,8.0,63,0.00,,,0.01,WeatherDisplay:10.37,2013-03-10 09:56:00,
2013-03-10 05:01:00,57.4,44.9,29.75,WNW,301,5.8,5.8,63,0.00,,,0.01,WeatherDisplay:10.37,2013-03-10 10:01:00,
2013-03-10 05:06:00,57.1,44.6,29.78,West,271,9.2,9.2,63,0.00,,,0.01,WeatherDisplay:10.37,2013-03-10 10:06:00,
2013-03-10 05:11:00,57.2,45.1,29.78,NNW,339,3.5,3.5,64,0.00,,,0.01,WeatherDisplay:10.37,2013-03-10 10:11:00,
2013-03-10 05:16:00,57.1,45.8,29.79,SW,214,6.9,6.9,66,0.01,RA,,0.02,WeatherDisplay:10.37,2013-03-10 10:16:00,
2013-03-10 05:21:00,56.7,46.3,29.79,WSW,240,5.0,5.0,68,0.01,RA,,0.02,WeatherDisplay:10.37,2013-03-10 10:21:00,
2013-03-10 05:26:00,56.1,46.4,29.77,West,274,3.5,3.5,70,0.01,,,0.02,WeatherDisplay:10.37,2013-03-10 10:26:00,
2013-03-10 05:31:00,55.6,46.3,29.76,SW,236,3.5,3.5,71,0.01,,,0.02,WeatherDisplay:10.37,2013-03-10 10:31:00,
2013-03-10 05:36:00,55.1,46.6,29.75,WSW,243,2.3,0.0,73,0.02,RA,,0.03,WeatherDisplay:10.37,2013-03-10 10:36:00,
2013-03-10 05:41:00,54.8,46.3,29.75,West,262,0.0,0.1,73,0.02,RA,,0.03,WeatherDisplay:10.37,2013-03-10 10:41:00,
2013-03-10 05:46:00,54.5,46.7,29.75,WSW,240,3.5,3.5,75,0.02,,,0.03,WeatherDisplay:10.37,2013-03-10 10:46:00,
2013-03-10 05:51:00,54.3,47.9,29.74,WSW,239,1.2,0.0,79,0.02,,,0.03,WeatherDisplay:10.37,2013-03-10 10:51:00,
2013-03-10 05:56:00,53.6,48.2,29.72,East,82,1.2,1.2,82,0.02,,,0.03,WeatherDisplay:10.37,2013-03-10 10:56:00,
2013-03-10 06:01:00,52.8,48.4,29.71,ENE,64,1.2,1.2,85,0.02,,,0.03,WeatherDisplay:10.37,2013-03-10 11:01:00,
2013-03-10 06:06:00,52.3,48.5,29.72,SW,214,0.0,0.1,87,0.02,,,0.03,WeatherDisplay:10.37,2013-03-10 11:06:00,
2013-03-10 06:11:00,52.0,48.9,29.71,SW,215,1.2,0.0,89,0.02,,,0.03,WeatherDisplay:10.37,2013-03-10 11:11:00,
2013-03-10 06:16:00,51.9,48.8,29.71,SW,215,0.0,0.0,89,0.01,,,0.03,WeatherDisplay:10.37,2013-03-10 11:16:00,
2013-03-10 06:22:00,51.8,48.7,29.70,SW,215,0.0,0.0,89,0.01,,,0.03,WeatherDisplay:10.37,2013-03-10 11:22:00,
2013-03-10 06:27:00,51.7,48.6,29.70,SW,215,0.0,0.0,89,0.01,,,0.03,WeatherDisplay:10.37,2013-03-10 11:27:00,
2013-03-10 06:32:00,51.8,49.0,29.72,WSW,253,0.0,0.0,90,0.01,,,0.03,WeatherDisplay:10.37,2013-03-10 11:32:00,
2013-03-10 06:37:00,51.8,48.7,29.70,WSW,253,1.2,0.0,89,0.00,,,0.03,WeatherDisplay:10.37,2013-03-10 11:37:00,
2013-03-10 06:42:00,51.8,49.0,29.74,WSW,243,1.2,1.2,90,0.00,,,0.03,WeatherDisplay:10.37,2013-03-10 11:42:00,
2013-03-10 06:47:00,51.7,48.9,29.74,WSW,240,1.2,1.2,90,0.00,,,0.03,WeatherDisplay:10.37,2013-03-10 11:47:00,
2013-03-10 06:52:00,51.6,48.5,29.73,WSW,250,0.0,0.0,89,0.00,,,0.03,WeatherDisplay:10.37,2013-03-10 11:52:00,
2013-03-10 06:57:00,51.7,48.6,29.72,WSW,250,0.0,0.0,89,0.00,,,0.03,WeatherDisplay:10.37,2013-03-10 11:57:00,
2013-03-10 07:02:00,51.8,48.7,29.72,WSW,250,0.0,0.0,89,0.00,,,0.03,WeatherDisplay:10.37,2013-03-10 12:02:00,
2013-03-10 07:07:00,52.0,48.3,29.74,WSW,250,0.0,0.0,87,0.00,,,0.03,WeatherDisplay:10.37,2013-03-10 12:07:00,
2013-03-10 07:12:00,52.2,48.1,29.74,WNW,297,2.3,2.3,86,0.00,,,0.03,WeatherDisplay:10.37,2013-03-10 12:12:00,
2013-03-10 07:17:00,52.8,47.5,29.75,NW,326,15.0,15.0,82,0.00,,,0.03,WeatherDisplay:10.37,2013-03-10 12:17:00,
2013-03-10 07:22:00,53.5,46.5,29.77,NNW,330,4.6,4.6,77,0.00,,,0.03,WeatherDisplay:10.37,2013-03-10 12:22:00,
2013-03-10 07:27:00,53.6,45.5,29.77,NW,323,10.4,10.4,74,0.00,,,0.03,WeatherDisplay:10.37,2013-03-10 12:27:00,
2013-03-10 07:32:00,53.5,45.1,29.77,WSW,243,12.7,12.7,73,0.00,,,0.03,WeatherDisplay:10.37,2013-03-10 12:32:00,
2013-03-10 07:37:00,53.3,44.1,29.77,West,270,13.8,13.8,71,0.00,,,0.03,WeatherDisplay:10.37,2013-03-10 12:37:00,
2013-03-10 07:42:00,53.1,44.3,29.78,WNW,290,8.1,8.1,72,0.00,,,0.03,WeatherDisplay:10.37,2013-03-10 12:42:00,
2013-03-10 07:47:00,52.9,44.1,29.80,NW,312,8.1,8.1,72,0.00,,,0.03,WeatherDisplay:10.37,2013-03-10 12:47:00,
2013-03-10 07:52:00,52.7,43.9,29.79,NW,311,9.2,9.2,72,0.00,,,0.03,WeatherDisplay:10.37,2013-03-10 12:52:00,
2013-03-10 07:57:00,52.4,42.5,29.82,WNW,293,9.2,9.2,69,0.00,,,0.03,WeatherDisplay:10.37,2013-03-10 12:57:00,
2013-03-10 08:02:00,52.0,40.6,29.81,NNW,345,15.0,15.0,65,0.00,,,0.03,WeatherDisplay:10.37,2013-03-10 13:02:00,
2013-03-10 08:07:00,51.6,39.4,29.79,NW,305,11.5,11.5,63,0.00,,,0.03,WeatherDisplay:10.37,2013-03-10 13:07:00,
2013-03-10 08:12:00,51.2,38.6,29.81,NW,305,10.4,10.4,62,0.00,,,0.03,WeatherDisplay:10.37,2013-03-10 13:12:00,
2013-03-10 08:17:00,50.9,36.6,29.83,WNW,290,11.5,11.5,58,0.00,,,0.03,WeatherDisplay:10.37,2013-03-10 13:17:00,
2013-03-10 08:22:00,50.6,37.2,29.82,NW,312,10.0,10.0,60,0.00,,,0.03,WeatherDisplay:10.37,2013-03-10 13:22:00,
2013-03-10 08:27:00,50.4,37.0,29.83,WNW,297,12.7,12.7,60,0.00,,,0.03,WeatherDisplay:10.37,2013-03-10 13:27:00,
2013-03-10 08:32:00,50.3,36.9,29.82,South,188,11.5,11.5,60,0.00,,,0.03,WeatherDisplay:10.37,2013-03-10 13:32:00,
2013-03-10 08:37:00,50.1,36.7,29.82,NNE,20,11.5,11.5,60,0.00,,,0.03,WeatherDisplay:10.37,2013-03-10 13:37:00,
2013-03-10 08:42:00,50.0,36.7,29.83,West,269,11.5,11.5,60,0.00,,,0.03,WeatherDisplay:10.37,2013-03-10 13:42:00,
2013-03-10 08:47:00,49.9,36.6,29.84,NW,309,8.1,8.1,60,0.00,,,0.03,WeatherDisplay:10.37,2013-03-10 13:47:00,
2013-03-10 08:52:00,49.9,37.0,29.84,WSW,247,4.6,4.6,61,0.00,,,0.03,WeatherDisplay:10.37,2013-03-10 13:52:00,
2013-03-10 08:57:00,49.8,36.9,29.84,West,276,10.4,10.4,61,0.00,,,0.03,WeatherDisplay:10.37,2013-03-10 13:57:00,
2013-03-10 09:02:00,49.8,36.5,29.84,NW,315,11.5,11.5,60,0.00,,,0.03,WeatherDisplay:10.37,2013-03-10 14:02:00,
2013-03-10 09:07:00,49.8,36.5,29.84,NW,304,8.1,8.1,60,0.00,,,0.03,WeatherDisplay:10.37,2013-03-10 14:07:00,
2013-03-10 09:12:00,49.7,35.9,29.85,NW,307,11.5,11.5,59,0.00,,,0.03,WeatherDisplay:10.37,2013-03-10 14:12:00,
2013-03-10 09:17:00,49.7,36.4,29.85,NW,319,9.2,9.2,60,0.00,,,0.03,WeatherDisplay:10.37,2013-03-10 14:17:00,
2013-03-10 09:22:00,49.7,36.4,29.85,SW,217,6.9,6.9,60,0.00,,,0.03,WeatherDisplay:10.37,2013-03-10 14:22:00,
2013-03-10 09:27:00,49.8,36.5,29.86,NNW,330,10.4,10.4,60,0.00,,,0.03,WeatherDisplay:10.37,2013-03-10 14:27:00,
2013-03-10 09:32:00,49.8,36.0,29.86,WNW,301,11.5,11.5,59,0.00,,,0.03,WeatherDisplay:10.37,2013-03-10 14:32:00,
2013-03-10 09:37:00,50.2,36.4,29.87,NW,307,7.0,7.0,59,0.00,,,0.03,WeatherDisplay:10.37,2013-03-10 14:37:00,
2013-03-10 09:42:00,50.5,36.3,29.87,NW,320,9.2,9.2,58,0.00,,,0.03,WeatherDisplay:10.37,2013-03-10 14:42:00,
2013-03-10 09:47:00,50.5,35.4,29.87,WNW,298,18.4,18.4,56,0.00,,,0.03,WeatherDisplay:10.37,2013-03-10 14:47:00,
2013-03-10 09:52:00,50.5,35.4,29.87,West,276,11.5,11.5,56,0.00,,,0.03,WeatherDisplay:10.37,2013-03-10 14:52:00,
2013-03-10 09:57:00,50.5,34.9,29.88,WNW,297,19.6,19.6,55,0.00,,,0.03,WeatherDisplay:10.37,2013-03-10 14:57:00,
2013-03-10 10:02:00,50.6,35.0,29.88,West,270,15.0,15.0,55,0.00,,,0.03,WeatherDisplay:10.37,2013-03-10 15:02:00,
2013-03-10 10:07:00,50.7,35.1,29.89,West,273,9.2,9.2,55,0.00,,,0.03,WeatherDisplay:10.37,2013-03-10 15:07:00,
2013-03-10 10:12:00,50.5,34.5,29.89,West,260,23.0,23.0,54,0.00,,,0.03,WeatherDisplay:10.37,2013-03-10 15:12:00,
2013-03-10 10:17:00,50.8,35.2,29.90,WNW,295,13.8,13.8,55,0.00,,,0.03,WeatherDisplay:10.37,2013-03-10 15:17:00,
2013-03-10 10:22:00,51.1,35.5,29.90,NW,309,8.0,8.0,55,0.00,,,0.03,WeatherDisplay:10.37,2013-03-10 15:22:00,
2013-03-10 10:27:00,51.1,34.5,29.90,West,259,19.6,19.6,53,0.00,,,0.03,WeatherDisplay:10.37,2013-03-10 15:27:00,
2013-03-10 10:32:00,51.3,35.7,29.90,NW,312,13.0,13.0,55,0.00,,,0.03,WeatherDisplay:10.37,2013-03-10 15:32:00,
2013-03-10 10:37:00,51.2,34.6,29.90,WNW,291,15.0,15.0,53,0.00,,,0.03,WeatherDisplay:10.37,2013-03-10 15:37:00,
2013-03-10 10:42:00,51.4,35.8,29.91,WNW,285,16.0,16.0,55,0.00,,,0.03,WeatherDisplay:10.37,2013-03-10 15:42:00,
2013-03-10 10:47:00,51.0,35.4,29.91,NW,312,15.0,15.0,55,0.00,,,0.03,WeatherDisplay:10.37,2013-03-10 15:47:00,
2013-03-10 10:52:00,50.9,35.3,29.91,West,280,12.7,12.7,55,0.00,,,0.03,WeatherDisplay:10.37,2013-03-10 15:52:00,
2013-03-10 10:58:00,51.2,35.6,29.91,NW,321,9.2,9.2,55,0.00,,,0.03,WeatherDisplay:10.37,2013-03-10 15:58:00,
2013-03-10 11:03:00,51.7,35.6,29.91,NW,309,11.5,11.5,54,0.00,,,0.03,WeatherDisplay:10.37,2013-03-10 16:03:00,
2013-03-10 11:08:00,52.0,35.9,29.92,WNW,297,19.6,19.6,54,0.00,,,0.03,WeatherDisplay:10.37,2013-03-10 16:08:00,
2013-03-10 11:13:00,51.8,35.2,29.92,WSW,255,15.0,15.0,53,0.00,,,0.03,WeatherDisplay:10.37,2013-03-10 16:13:00,
2013-03-10 11:18:00,52.3,36.1,29.92,WNW,300,14.0,14.0,54,0.00,,,0.03,WeatherDisplay:10.37,2013-03-10 16:18:00,
2013-03-10 11:23:00,52.4,35.8,29.92,WNW,299,15.0,15.0,53,0.00,,,0.03,WeatherDisplay:10.37,2013-03-10 16:23:00,
2013-03-10 11:28:00,51.9,35.3,29.92,WNW,285,17.3,17.3,53,0.00,,,0.03,WeatherDisplay:10.37,2013-03-10 16:28:00,
2013-03-10 11:33:00,51.7,35.1,29.93,WNW,291,10.4,10.4,53,0.00,,,0.03,WeatherDisplay:10.37,2013-03-10 16:33:00,
2013-03-10 11:38:00,51.8,35.7,29.93,West,266,13.8,13.8,54,0.00,,,0.03,WeatherDisplay:10.37,2013-03-10 16:38:00,
2013-03-10 11:43:00,51.5,35.4,29.93,WNW,284,12.7,12.7,54,0.00,,,0.03,WeatherDisplay:10.37,2013-03-10 16:43:00,
2013-03-10 11:48:00,51.4,35.3,29.93,WSW,253,8.1,8.1,54,0.00,,,0.03,WeatherDisplay:10.37,2013-03-10 16:48:00,
2013-03-10 11:53:00,51.7,35.1,29.93,WNW,297,15.0,15.0,53,0.00,,,0.03,WeatherDisplay:10.37,2013-03-10 16:53:00,
2013-03-10 11:58:00,51.2,35.1,29.93,South,190,19.6,19.6,54,0.00,,,0.03,WeatherDisplay:10.37,2013-03-10 16:58:00,
2013-03-10 12:03:00,51.5,36.3,29.94,WNW,290,11.5,11.5,56,0.00,,,0.03,WeatherDisplay:10.37,2013-03-10 17:03:00,
2013-03-10 12:08:00,51.6,35.9,29.94,West,259,16.1,16.1,55,0.00,,,0.03,WeatherDisplay:10.37,2013-03-10 17:08:00,
2013-03-10 12:13:00,51.2,36.0,29.94,NW,318,15.0,15.0,56,0.00,,,0.03,WeatherDisplay:10.37,2013-03-10 17:13:00,
2013-03-10 12:18:00,50.7,35.6,29.95,WNW,289,12.7,12.7,56,0.00,,,0.03,WeatherDisplay:10.37,2013-03-10 17:18:00,
2013-03-10 12:23:00,50.5,36.3,29.95,WSW,256,11.5,11.5,58,0.00,,,0.03,WeatherDisplay:10.37,2013-03-10 17:23:00,
2013-03-10 12:28:00,50.5,36.3,29.96,West,278,12.7,12.7,58,0.00,,,0.03,WeatherDisplay:10.37,2013-03-10 17:28:00,
2013-03-10 12:33:00,50.9,36.6,29.96,West,278,11.5,11.5,58,0.00,,,0.03,WeatherDisplay:10.37,2013-03-10 17:33:00,
2013-03-10 12:38:00,50.6,36.4,29.96,WNW,283,15.0,15.0,58,0.00,,,0.03,WeatherDisplay:10.37,2013-03-10 17:38:00,
2013-03-10 12:43:00,50.7,36.5,29.96,West,266,12.0,12.0,58,0.00,,,0.03,WeatherDisplay:10.37,2013-03-10 17:43:00,
2013-03-10 12:48:00,50.8,36.1,29.96,NW,305,10.4,10.4,57,0.00,,,0.03,WeatherDisplay:10.37,2013-03-10 17:48:00,
2013-03-10 12:53:00,50.7,36.0,29.97,NW,316,13.0,13.0,57,0.00,,,0.03,WeatherDisplay:10.37,2013-03-10 17:53:00,
2013-03-10 12:58:00,50.5,35.8,29.97,West,275,11.5,11.5,57,0.00,,,0.03,WeatherDisplay:10.37,2013-03-10 17:58:00,
2013-03-10 13:03:00,50.5,35.8,29.97,West,269,13.8,13.8,57,0.00,,,0.03,WeatherDisplay:10.37,2013-03-10 18:03:00,
2013-03-10 13:08:00,50.3,35.6,29.97,WSW,257,17.3,17.3,57,0.00,,,0.03,WeatherDisplay:10.37,2013-03-10 18:08:00,
2013-03-10 13:13:00,50.3,35.6,29.97,WNW,300,13.0,13.0,57,0.00,,,0.03,WeatherDisplay:10.37,2013-03-10 18:13:00,
2013-03-10 13:18:00,50.3,35.6,29.97,WNW,297,15.0,15.0,57,0.00,,,0.03,WeatherDisplay:10.37,2013-03-10 18:18:00,
2013-03-10 13:23:00,50.1,35.4,29.97,NW,307,11.5,11.5,57,0.00,,,0.03,WeatherDisplay:10.37,2013-03-10 18:23:00,
2013-03-10 13:28:00,50.3,35.6,29.97,WNW,294,8.1,8.1,57,0.00,,,0.03,WeatherDisplay:10.37,2013-03-10 18:28:00,
2013-03-10 13:33:00,50.6,35.5,29.96,NW,324,11.5,11.5,56,0.00,,,0.03,WeatherDisplay:10.37,2013-03-10 18:33:00,
2013-03-10 13:38:00,51.4,35.3,29.95,WNW,291,11.5,11.5,54,0.00,,,0.03,WeatherDisplay:10.37,2013-03-10 18:38:00,
2013-03-10 13:43:00,51.8,35.2,29.95,West,265,15.0,15.0,53,0.00,,,0.03,WeatherDisplay:10.37,2013-03-10 18:43:00,
2013-03-10 13:48:00,51.3,34.7,29.95,NW,311,12.7,12.7,53,0.00,,,0.03,WeatherDisplay:10.37,2013-03-10 18:48:00,
2013-03-10 13:53:00,51.6,35.5,29.95,WNW,297,17.3,17.3,54,0.00,,,0.03,WeatherDisplay:10.37,2013-03-10 18:53:00,
2013-03-10 13:58:00,51.9,34.8,29.95,NW,305,11.5,11.5,52,0.00,,,0.03,WeatherDisplay:10.37,2013-03-10 18:58:00,
2013-03-10 14:03:00,52.1,35.5,29.95,West,278,16.1,16.1,53,0.00,,,0.03,WeatherDisplay:10.37,2013-03-10 19:03:00,
2013-03-10 14:08:00,51.7,34.1,29.95,WSW,256,15.0,15.0,51,0.00,,,0.03,WeatherDisplay:10.37,2013-03-10 19:08:00,
2013-03-10 14:13:00,51.6,35.0,29.95,West,273,11.5,11.5,53,0.00,,,0.03,WeatherDisplay:10.37,2013-03-10 19:13:00,
2013-03-10 14:18:00,51.6,34.0,29.95,NE,51,18.4,18.4,51,0.00,,,0.03,WeatherDisplay:10.37,2013-03-10 19:18:00,
2013-03-10 14:23:00,51.7,34.1,29.94,WNW,284,21.0,21.0,51,0.00,,,0.03,WeatherDisplay:10.37,2013-03-10 19:23:00,
2013-03-10 14:28:00,51.6,34.0,29.95,NNW,330,17.3,17.3,51,0.00,,,0.03,WeatherDisplay:10.37,2013-03-10 19:28:00,
2013-03-10 14:33:00,51.8,34.7,29.95,WSW,248,20.7,20.7,52,0.00,,,0.03,WeatherDisplay:10.37,2013-03-10 19:33:00,
2013-03-10 14:38:00,51.7,34.6,29.95,NW,322,12.7,12.7,52,0.00,,,0.03,WeatherDisplay:10.37,2013-03-10 19:38:00,
2013-03-10 14:43:00,51.4,33.9,29.95,WNW,290,15.0,15.0,51,0.00,,,0.03,WeatherDisplay:10.37,2013-03-10 19:43:00,
2013-03-10 14:49:00,51.1,34.1,29.95,WNW,284,11.5,11.5,52,0.00,,,0.03,WeatherDisplay:10.37,2013-03-10 19:49:00,
2013-03-10 14:54:00,51.0,33.5,29.95,North,358,19.6,19.6,51,0.00,,,0.03,WeatherDisplay:10.37,2013-03-10 19:54:00,
2013-03-10 14:59:00,51.4,34.3,29.95,NE,39,11.5,11.5,52,0.00,,,0.03,WeatherDisplay:10.37,2013-03-10 19:59:00,
2013-03-10 15:04:00,51.8,33.7,29.95,NNE,15,13.8,13.8,50,0.00,,,0.03,WeatherDisplay:10.37,2013-03-10 20:04:00,
2013-03-10 15:09:00,51.7,33.6,29.95,WNW,295,13.8,13.8,50,0.00,,,0.03,WeatherDisplay:10.37,2013-03-10 20:09:00,
2013-03-10 15:14:00,51.4,33.4,29.95,North,356,19.6,19.6,50,0.00,,,0.03,WeatherDisplay:10.37,2013-03-10 20:14:00,
2013-03-10 15:19:00,51.5,33.5,29.95,NW,314,11.5,11.5,50,0.00,,,0.03,WeatherDisplay:10.37,2013-03-10 20:19:00,
2013-03-10 15:24:00,51.2,33.2,29.96,WNW,285,17.3,17.3,50,0.00,,,0.03,WeatherDisplay:10.37,2013-03-10 20:24:00,
2013-03-10 15:29:00,51.1,33.6,29.96,WSW,256,15.0,15.0,51,0.00,,,0.03,WeatherDisplay:10.37,2013-03-10 20:29:00,
2013-03-10 15:34:00,51.2,33.2,29.95,NW,304,16.1,16.1,50,0.00,,,0.03,WeatherDisplay:10.37,2013-03-10 20:34:00,
2013-03-10 15:39:00,51.0,33.5,29.95,NW,309,12.7,12.7,51,0.00,,,0.03,WeatherDisplay:10.37,2013-03-10 20:39:00,
2013-03-10 15:44:00,51.3,33.8,29.96,WNW,295,11.5,11.5,51,0.00,,,0.03,WeatherDisplay:10.37,2013-03-10 20:44:00,
2013-03-10 15:49:00,51.7,34.1,29.96,North,354,12.7,12.7,51,0.00,,,0.03,WeatherDisplay:10.37,2013-03-10 20:49:00,
2013-03-10 15:54:00,52.1,34.0,29.96,West,269,15.0,15.0,50,0.00,,,0.03,WeatherDisplay:10.37,2013-03-10 20:54:00,
2013-03-10 15:59:00,52.6,34.5,29.96,WNW,284,6.9,6.9,50,0.00,,,0.03,WeatherDisplay:10.37,2013-03-10 20:59:00,
2013-03-10 16:04:00,53.1,34.4,29.96,West,259,15.0,15.0,49,0.00,,,0.03,WeatherDisplay:10.37,2013-03-10 21:04:00,
2013-03-10 16:09:00,53.5,33.7,29.96,West,269,16.1,16.1,47,0.00,,,0.03,WeatherDisplay:10.37,2013-03-10 21:09:00,
2013-03-10 16:14:00,52.8,33.6,29.96,NW,307,12.7,12.7,48,0.00,,,0.03,WeatherDisplay:10.37,2013-03-10 21:14:00,
2013-03-10 16:19:00,52.1,33.5,29.96,NW,309,12.7,12.7,49,0.00,,,0.03,WeatherDisplay:10.37,2013-03-10 21:19:00,
2013-03-10 16:24:00,51.6,33.6,29.96,NNW,330,11.5,11.5,50,0.00,,,0.03,WeatherDisplay:10.37,2013-03-10 21:24:00,
2013-03-10 16:29:00,51.7,34.6,29.96,WNW,297,11.0,11.0,52,0.00,,,0.03,WeatherDisplay:10.37,2013-03-10 21:29:00,
2013-03-10 16:34:00,52.4,33.8,29.96,WNW,302,9.0,18.0,49,0.00,,,0.03,WeatherDisplay:10.37,2013-03-10 21:34:00,
2013-03-10 16:39:00,52.1,33.5,29.97,NW,308,5.0,15.0,49,0.00,,,0.03,WeatherDisplay:10.37,2013-03-10 21:39:00,
2013-03-10 16:44:00,52.6,34.5,29.97,SW,233,6.9,6.9,50,0.00,,,0.03,WeatherDisplay:10.37,2013-03-10 21:44:00,
2013-03-10 16:49:00,53.3,34.6,29.97,WNW,298,7.0,16.0,49,0.00,,,0.03,WeatherDisplay:10.37,2013-03-10 21:49:00,
2013-03-10 16:54:00,53.0,33.3,29.97,NW,306,8.0,16.0,47,0.00,,,0.03,WeatherDisplay:10.37,2013-03-10 21:54:00,
2013-03-10 16:59:00,53.3,34.1,29.97,WNW,290,11.5,11.5,48,0.00,,,0.03,WeatherDisplay:10.37,2013-03-10 21:59:00,
2013-03-10 17:04:00,53.9,34.6,29.97,NW,319,6.0,14.0,48,0.00,,,0.03,WeatherDisplay:10.37,2013-03-10 22:04:00,
2013-03-10 17:09:00,53.0,32.8,29.97,WSW,253,10.4,10.4,46,0.00,,,0.03,WeatherDisplay:10.37,2013-03-10 22:09:00,
2013-03-10 17:14:00,52.0,32.9,29.97,NW,304,7.0,20.0,48,0.00,,,0.03,WeatherDisplay:10.37,2013-03-10 22:14:00,
2013-03-10 17:19:00,51.4,32.9,29.97,WNW,297,5.0,12.0,49,0.00,,,0.03,WeatherDisplay:10.37,2013-03-10 22:19:00,
2013-03-10 17:24:00,51.8,32.7,29.97,WSW,249,9.2,9.2,48,0.00,,,0.03,WeatherDisplay:10.37,2013-03-10 22:24:00,
2013-03-10 17:29:00,51.8,32.8,29.97,NW,306,7.0,14.0,48,0.00,,,0.03,WeatherDisplay:10.37,2013-03-10 22:29:00,
2013-03-10 17:34:00,51.9,32.3,29.97,WNW,284,14.0,14.0,47,0.00,,,0.03,WeatherDisplay:10.37,2013-03-10 22:34:00,
2013-03-10 17:39:00,51.4,32.3,29.97,WNW,290,17.3,17.3,48,0.00,,,0.03,WeatherDisplay:10.37,2013-03-10 22:39:00,
2013-03-10 17:44:00,51.5,32.5,29.97,WNW,299,6.0,12.0,48,0.00,,,0.03,WeatherDisplay:10.37,2013-03-10 22:44:00,
2013-03-10 17:49:00,51.9,32.8,29.97,North,7,10.4,10.4,48,0.00,,,0.03,WeatherDisplay:10.37,2013-03-10 22:49:00,
2013-03-10 17:54:00,51.6,32.0,29.97,North,358,15.0,15.0,47,0.00,,,0.03,WeatherDisplay:10.37,2013-03-10 22:54:00,
2013-03-10 17:59:00,51.4,32.3,29.98,WNW,292,7.0,20.0,48,0.00,,,0.03,WeatherDisplay:10.37,2013-03-10 22:59:00,
2013-03-10 18:04:00,51.2,31.7,29.98,WNW,295,7.0,15.0,47,0.00,,,0.03,WeatherDisplay:10.37,2013-03-10 23:04:00,
2013-03-10 18:09:00,51.3,32.3,29.99,NNW,339,17.3,17.3,48,0.00,,,0.03,WeatherDisplay:10.37,2013-03-10 23:09:00,
2013-03-10 18:14:00,51.0,31.5,29.99,NW,316,11.5,11.5,47,0.00,,,0.03,WeatherDisplay:10.37,2013-03-10 23:14:00,
2013-03-10 18:19:00,50.8,31.8,29.99,NW,304,7.0,12.0,48,0.00,,,0.03,WeatherDisplay:10.37,2013-03-10 23:19:00,
2013-03-10 18:24:00,50.4,31.5,29.99,NW,312,7.0,14.0,48,0.00,,,0.03,WeatherDisplay:10.37,2013-03-10 23:24:00,
2013-03-10 18:29:00,50.4,31.4,29.99,NW,315,8.1,8.1,48,0.00,,,0.03,WeatherDisplay:10.37,2013-03-10 23:29:00,
2013-03-10 18:34:00,50.4,31.9,29.99,North,359,12.0,12.0,49,0.00,,,0.03,WeatherDisplay:10.37,2013-03-10 23:34:00,
2013-03-10 18:39:00,50.4,31.4,30.00,NW,325,6.0,12.0,48,0.00,,,0.03,WeatherDisplay:10.37,2013-03-10 23:39:00,
2013-03-10 18:44:00,50.0,31.1,30.00,NW,326,6.0,12.0,48,0.00,,,0.03,WeatherDisplay:10.37,2013-03-10 23:44:00,
2013-03-10 18:49:00,49.6,31.2,30.00,NW,322,11.5,11.5,49,0.00,,,0.03,WeatherDisplay:10.37,2013-03-10 23:49:00,
2013-03-10 18:54:00,49.5,31.1,30.00,NW,320,5.0,13.0,49,0.00,,,0.03,WeatherDisplay:10.37,2013-03-10 23:54:00,
2013-03-10 18:59:00,49.6,31.2,30.01,WNW,290,9.2,9.2,49,0.00,,,0.03,WeatherDisplay:10.37,2013-03-10 23:59:00,
2013-03-10 19:04:00,49.5,31.1,30.01,NNW,330,3.0,14.0,49,0.00,CLR,,0.03,WeatherDisplay:10.37,2013-03-11 00:04:00,
2013-03-10 19:09:00,49.3,31.4,30.01,NNW,327,2.0,9.0,50,0.00,CLR,,0.03,WeatherDisplay:10.37,2013-03-11 00:09:00,
2013-03-10 19:14:00,49.1,31.2,30.01,NW,322,3.0,10.0,50,0.00,CLR,,0.03,WeatherDisplay:10.37,2013-03-11 00:14:00,
2013-03-10 19:19:00,48.7,30.9,30.01,West,281,5.8,5.8,50,0.00,CLR,,0.03,WeatherDisplay:10.37,2013-03-11 00:19:00,
2013-03-10 19:24:00,48.4,31.1,30.02,West,276,2.3,2.3,51,0.00,CLR,,0.03,WeatherDisplay:10.37,2013-03-11 00:24:00,
2013-03-10 19:29:00,48.1,31.3,30.02,NW,307,9.2,9.2,52,0.00,CLR,,0.03,WeatherDisplay:10.37,2013-03-11 00:29:00,
2013-03-10 19:34:00,48.0,30.7,30.02,NNW,333,4.6,4.6,51,0.00,CLR,,0.03,WeatherDisplay:10.37,2013-03-11 00:34:00,
2013-03-10 19:39:00,47.9,31.1,30.02,NW,323,1.0,6.0,52,0.00,CLR,,0.03,WeatherDisplay:10.37,2013-03-11 00:39:00,
2013-03-10 19:44:00,47.7,31.4,30.02,WNW,291,3.5,3.5,53,0.00,CLR,,0.03,WeatherDisplay:10.37,2013-03-11 00:44:00,
2013-03-10 19:49:00,47.4,31.6,30.02,NW,321,1.0,5.0,54,0.00,CLR,,0.03,WeatherDisplay:10.37,2013-03-11 00:49:00,
2013-03-10 19:54:00,47.1,31.3,30.03,NNW,338,2.0,8.0,54,0.00,CLR,,0.03,WeatherDisplay:10.37,2013-03-11 00:54:00,
2013-03-10 19:59:00,46.8,31.5,30.03,North,356,1.2,1.2,55,0.00,CLR,,0.03,WeatherDisplay:10.37,2013-03-11 00:59:00,
2013-03-10 20:04:00,46.5,31.6,30.03,NNW,347,2.0,5.0,56,0.00,CLR,,0.03,WeatherDisplay:10.37,2013-03-11 01:04:00,
2013-03-10 20:09:00,46.3,31.9,30.03,North,351,2.0,5.0,57,0.00,CLR,,0.03,WeatherDisplay:10.37,2013-03-11 01:09:00,
2013-03-10 20:14:00,46.2,31.4,30.03,North,359,2.3,2.3,56,0.00,CLR,,0.03,WeatherDisplay:10.37,2013-03-11 01:14:00,
2013-03-10 20:19:00,46.1,31.3,30.04,NNW,331,1.0,2.0,56,0.00,CLR,,0.03,WeatherDisplay:10.37,2013-03-11 01:19:00,
2013-03-10 20:24:00,46.0,31.2,30.04,NW,319,1.0,4.0,56,0.00,CLR,,0.03,WeatherDisplay:10.37,2013-03-11 01:24:00,
2013-03-10 20:29:00,45.8,31.4,30.04,NNW,347,1.2,1.2,57,0.00,CLR,,0.03,WeatherDisplay:10.37,2013-03-11 01:29:00,
2013-03-10 20:34:00,45.6,31.7,30.05,NNE,24,2.3,2.3,58,0.00,CLR,,0.03,WeatherDisplay:10.37,2013-03-11 01:34:00,
2013-03-10 20:39:00,45.1,31.6,30.05,NNE,23,1.2,0.0,59,0.00,CLR,,0.03,WeatherDisplay:10.37,2013-03-11 01:39:00,
2013-03-10 20:44:00,44.7,31.7,30.05,NNE,24,0.0,0.0,60,0.00,CLR,,0.03,WeatherDisplay:10.37,2013-03-11 01:44:00,
2013-03-10 20:49:00,44.2,31.2,30.05,NNE,23,0.0,0.0,60,0.00,CLR,,0.03,WeatherDisplay:10.37,2013-03-11 01:49:00,
2013-03-10 20:54:00,43.7,31.5,30.05,NNE,23,0.0,0.0,62,0.00,CLR,,0.03,WeatherDisplay:10.37,2013-03-11 01:54:00,
2013-03-10 20:59:00,43.1,30.6,30.06,NNE,23,0.0,0.0,61,0.00,CLR,,0.03,WeatherDisplay:10.37,2013-03-11 01:59:00,
2013-03-10 21:04:00,42.4,31.1,30.06,NNE,23,0.0,0.0,64,0.00,CLR,,0.03,WeatherDisplay:10.37,2013-03-11 02:04:00,
2013-03-10 21:09:00,41.7,30.8,30.06,NNE,23,0.0,0.0,65,0.00,CLR,,0.03,WeatherDisplay:10.37,2013-03-11 02:09:00,
2013-03-10 21:14:00,41.3,31.2,30.06,NNE,23,0.0,0.0,67,0.00,CLR,,0.03,WeatherDisplay:10.37,2013-03-11 02:14:00,
2013-03-10 21:19:00,41.5,31.4,30.07,NNE,25,0.0,0.0,67,0.00,CLR,,0.03,WeatherDisplay:10.37,2013-03-11 02:19:00,
2013-03-10 21:24:00,41.9,31.7,30.07,North,7,0.0,0.0,67,0.00,CLR,,0.03,WeatherDisplay:10.37,2013-03-11 02:24:00,
2013-03-10 21:29:00,42.0,31.5,30.07,North,356,0.0,0.0,66,0.00,CLR,,0.03,WeatherDisplay:10.37,2013-03-11 02:29:00,
2013-03-10 21:34:00,41.7,31.5,30.07,North,356,0.0,0.0,67,0.00,CLR,,0.03,WeatherDisplay:10.37,2013-03-11 02:34:00,
2013-03-10 21:39:00,41.4,31.6,30.08,North,356,0.0,0.0,68,0.00,CLR,,0.03,WeatherDisplay:10.37,2013-03-11 02:39:00,
2013-03-10 21:44:00,40.9,31.9,30.08,North,356,0.0,0.0,70,0.00,CLR,,0.03,WeatherDisplay:10.37,2013-03-11 02:44:00,
2013-03-10 21:49:00,40.8,32.1,30.08,North,356,0.0,0.0,71,0.00,CLR,,0.03,WeatherDisplay:10.37,2013-03-11 02:49:00,
2013-03-10 21:54:00,40.7,32.4,30.08,North,356,0.0,0.0,72,0.00,CLR,,0.03,WeatherDisplay:10.37,2013-03-11 02:54:00,
2013-03-10 21:59:00,40.5,32.2,30.08,North,356,0.0,0.0,72,0.00,CLR,,0.03,WeatherDisplay:10.37,2013-03-11 02:59:00,
2013-03-10 22:04:00,40.2,32.2,30.08,North,356,0.0,0.0,73,0.00,CLR,,0.03,WeatherDisplay:10.37,2013-03-11 03:04:00,
2013-03-10 22:09:00,40.2,32.2,30.08,North,356,0.0,0.0,73,0.00,CLR,,0.03,WeatherDisplay:10.37,2013-03-11 03:09:00,
2013-03-10 22:14:00,40.2,31.8,30.08,North,356,0.0,0.0,72,0.00,CLR,,0.03,WeatherDisplay:10.37,2013-03-11 03:14:00,
2013-03-10 22:19:00,39.9,32.3,30.08,North,356,1.2,0.0,74,0.00,CLR,,0.03,WeatherDisplay:10.37,2013-03-11 03:19:00,
2013-03-10 22:24:00,39.5,32.6,30.08,North,356,0.0,0.0,76,0.00,CLR,,0.03,WeatherDisplay:10.37,2013-03-11 03:24:00,
2013-03-10 22:29:00,39.0,32.7,30.08,North,356,0.0,0.0,78,0.00,CLR,,0.03,WeatherDisplay:10.37,2013-03-11 03:29:00,
2013-03-10 22:34:00,38.7,32.7,30.08,North,356,0.0,0.0,79,0.00,CLR,,0.03,WeatherDisplay:10.37,2013-03-11 03:34:00,
2013-03-10 22:39:00,38.4,32.8,30.08,North,356,0.0,0.0,80,0.00,CLR,,0.03,WeatherDisplay:10.37,2013-03-11 03:39:00,
2013-03-10 22:44:00,38.4,33.4,30.08,North,356,0.0,0.0,82,0.00,CLR,,0.03,WeatherDisplay:10.37,2013-03-11 03:44:00,
2013-03-10 22:49:00,38.6,33.0,30.08,North,356,0.0,0.0,80,0.00,CLR,,0.03,WeatherDisplay:10.37,2013-03-11 03:49:00,
2013-03-10 22:54:00,38.8,32.5,30.08,North,356,0.0,0.0,78,0.00,CLR,,0.03,WeatherDisplay:10.37,2013-03-11 03:54:00,
2013-03-10 22:59:00,38.7,32.4,30.08,North,356,0.0,0.0,78,0.00,CLR,,0.03,WeatherDisplay:10.37,2013-03-11 03:59:00,
2013-03-10 23:00:00,38.7,32.1,30.08,North,356,0.0,0.0,77,0.00,CLR,,0.03,WeatherDisplay:10.37,2013-03-11 04:00:00,
2013-03-10 23:01:00,38.7,32.1,30.08,North,356,0.0,0.0,77,0.00,CLR,,0.03,WeatherDisplay:10.37,2013-03-11 04:01:00,
2013-03-10 23:06:00,38.2,31.9,30.08,North,356,0.0,0.0,78,0.00,CLR,,0.03,WeatherDisplay:10.37,2013-03-11 04:06:00,
2013-03-10 23:11:00,37.9,32.6,30.07,NNE,30,0.0,0.0,81,0.00,CLR,,0.03,WeatherDisplay:10.37,2013-03-11 04:11:00,
2013-03-10 23:16:00,37.4,32.4,30.07,NNE,30,0.0,0.0,82,0.00,CLR,,0.03,WeatherDisplay:10.37,2013-03-11 04:16:00,
2013-03-10 23:21:00,37.4,32.7,30.07,NNE,27,0.0,0.0,83,0.00,CLR,,0.03,WeatherDisplay:10.37,2013-03-11 04:21:00,
2013-03-10 23:26:00,37.3,32.3,30.06,NNE,27,0.0,0.0,82,0.00,CLR,,0.03,WeatherDisplay:10.37,2013-03-11 04:26:00,
2013-03-10 23:31:00,37.0,32.3,30.06,NNE,27,0.0,0.0,83,0.00,CLR,,0.03,WeatherDisplay:10.37,2013-03-11 04:31:00,
2013-03-10 23:36:00,36.9,32.5,30.06,NNE,27,0.0,0.0,84,0.00,CLR,,0.03,WeatherDisplay:10.37,2013-03-11 04:36:00,
2013-03-10 23:41:00,37.0,32.6,30.06,NNW,345,1.2,1.2,84,0.00,CLR,,0.03,WeatherDisplay:10.37,2013-03-11 04:41:00,
2013-03-10 23:46:00,37.1,33.0,30.06,NNW,346,1.2,1.2,85,0.00,CLR,,0.03,WeatherDisplay:10.37,2013-03-11 04:46:00,
2013-03-10 23:52:00,37.3,33.2,30.06,NNW,334,1.2,0.0,85,0.00,CLR,,0.03,WeatherDisplay:10.37,2013-03-11 04:52:00,
2013-03-10 23:57:00,37.4,33.0,30.05,NNW,333,0.0,0.0,84,0.00,CLR,,0.03,WeatherDisplay:10.37,2013-03-11 04:57:00,